sensor_id;sensor_type;location;lat;lon;timestamp;pressure;altitude;pressure_sealevel;temperature
19948;BMP180;10135;50.702;7.276;2023-11-21T06:02:00;99080.00;;;13.60
19948;BMP180;10135;50.702;7.276;2023-11-21T06:04:00;99084.00;;;13.60
19948;BMP180;10135;50.702;7.276;2023-11-21T06:06:01;99090.00;;;13.60
19948;BMP180;10135;50.702;7.276;2023-11-21T06:08:02;99091.00;;;13.60
19948;BMP180;10135;50.702;7.276;2023-11-21T06:10:04;99094.00;;;13.60
19948;BMP180;10135;50.702;7.276;2023-11-21T06:12:14;99096.00;;;13.60
19948;BMP180;10135;50.702;7.276;2023-11-21T06:14:16;99097.00;;;13.60
19948;BMP180;10135;50.702;7.276;2023-11-21T06:16:18;99101.00;;;13.60
19948;BMP180;10135;50.702;7.276;2023-11-21T06:18:19;99110.00;;;13.60
19948;BMP180;10135;50.702;7.276;2023-11-21T06:20:21;99117.00;;;13.60
19948;BMP180;10135;50.702;7.276;2023-11-21T06:22:22;99114.00;;;13.60
19948;BMP180;10135;50.702;7.276;2023-11-21T06:24:23;99126.00;;;13.60
19948;BMP180;10135;50.702;7.276;2023-11-21T06:26:24;99123.00;;;13.60
19948;BMP180;10135;50.702;7.276;2023-11-21T06:28:26;99124.00;;;13.60
19948;BMP180;10135;50.702;7.276;2023-11-21T06:30:26;99125.00;;;13.60
19948;BMP180;10135;50.702;7.276;2023-11-21T06:32:27;99123.00;;;13.60
19948;BMP180;10135;50.702;7.276;2023-11-21T06:34:30;99134.00;;;13.60
19948;BMP180;10135;50.702;7.276;2023-11-21T06:36:30;99133.00;;;13.60
19948;BMP180;10135;50.702;7.276;2023-11-21T06:38:31;99138.00;;;13.60
19948;BMP180;10135;50.702;7.276;2023-11-21T06:40:32;99132.00;;;13.60
19948;BMP180;10135;50.702;7.276;2023-11-21T06:42:34;99132.00;;;13.60
19948;BMP180;10135;50.702;7.276;2023-11-21T06:44:34;99134.00;;;13.60
19948;BMP180;10135;50.702;7.276;2023-11-21T06:46:36;99136.00;;;13.60
19948;BMP180;10135;50.702;7.276;2023-11-21T06:48:38;99140.00;;;13.60
19948;BMP180;10135;50.702;7.276;2023-11-21T06:50:39;99144.00;;;13.60
19948;BMP180;10135;50.702;7.276;2023-11-21T06:52:40;99148.00;;;13.60
19948;BMP180;10135;50.702;7.276;2023-11-21T06:54:40;99152.00;;;13.60
19948;BMP180;10135;50.702;7.276;2023-11-21T06:56:41;99152.00;;;13.60
19948;BMP180;10135;50.702;7.276;2023-11-21T06:58:42;99156.00;;;13.60
19948;BMP180;10135;50.702;7.276;2023-11-21T07:00:42;99155.00;;;13.60
19948;BMP180;10135;50.702;7.276;2023-11-21T07:02:47;99159.00;;;13.60
19948;BMP180;10135;50.702;7.276;2023-11-21T07:04:47;99161.00;;;13.60
19948;BMP180;10135;50.702;7.276;2023-11-21T07:06:48;99167.00;;;13.60
19948;BMP180;10135;50.702;7.276;2023-11-21T07:08:49;99172.00;;;13.60
19948;BMP180;10135;50.702;7.276;2023-11-21T07:10:49;99182.00;;;13.60
19948;BMP180;10135;50.702;7.276;2023-11-21T07:12:50;99177.00;;;13.60
19948;BMP180;10135;50.702;7.276;2023-11-21T07:14:51;99186.00;;;13.60
19948;BMP180;10135;50.702;7.276;2023-11-21T07:16:52;99186.00;;;13.60
19948;BMP180;10135;50.702;7.276;2023-11-21T07:18:53;99195.00;;;13.60
19948;BMP180;10135;50.702;7.276;2023-11-21T07:20:55;99194.00;;;13.60
19948;BMP180;10135;50.702;7.276;2023-11-21T07:22:56;99197.00;;;13.60
19948;BMP180;10135;50.702;7.276;2023-11-21T07:24:58;99200.00;;;13.60
19948;BMP180;10135;50.702;7.276;2023-11-21T07:26:58;99210.00;;;13.60
19948;BMP180;10135;50.702;7.276;2023-11-21T07:29:01;99215.00;;;13.60
19948;BMP180;10135;50.702;7.276;2023-11-21T07:31:03;99219.00;;;13.60
19948;BMP180;10135;50.702;7.276;2023-11-21T07:33:03;99217.00;;;13.60
19948;BMP180;10135;50.702;7.276;2023-11-21T07:35:04;99221.00;;;13.60
19948;BMP180;10135;50.702;7.276;2023-11-21T07:37:05;99230.00;;;13.60
19948;BMP180;10135;50.702;7.276;2023-11-21T07:39:06;99234.00;;;13.60
19948;BMP180;10135;50.702;7.276;2023-11-21T07:41:07;99236.00;;;13.60
19948;BMP180;10135;50.702;7.276;2023-11-21T07:43:10;99238.00;;;13.60
19948;BMP180;10135;50.702;7.276;2023-11-21T07:45:11;99245.00;;;13.60
19948;BMP180;10135;50.702;7.276;2023-11-21T07:47:12;99242.00;;;13.60
19948;BMP180;10135;50.702;7.276;2023-11-21T07:49:13;99247.00;;;13.70
19948;BMP180;10135;50.702;7.276;2023-11-21T07:51:21;99252.00;;;13.70
19948;BMP180;10135;50.702;7.276;2023-11-21T07:53:22;99256.00;;;13.60
19948;BMP180;10135;50.702;7.276;2023-11-21T07:55:23;99261.00;;;13.70
19948;BMP180;10135;50.702;7.276;2023-11-21T07:57:25;99258.00;;;13.70
19948;BMP180;10135;50.702;7.276;2023-11-21T07:59:26;99266.00;;;13.70
19948;BMP180;10135;50.702;7.276;2023-11-21T08:01:27;99265.00;;;13.70
19948;BMP180;10135;50.702;7.276;2023-11-21T08:03:28;99264.00;;;13.70
19948;BMP180;10135;50.702;7.276;2023-11-21T08:05:32;99263.00;;;13.70
19948;BMP180;10135;50.702;7.276;2023-11-21T08:07:33;99264.00;;;13.70
19948;BMP180;10135;50.702;7.276;2023-11-21T08:09:34;99269.00;;;13.70
19948;BMP180;10135;50.702;7.276;2023-11-21T08:11:35;99270.00;;;13.70
19948;BMP180;10135;50.702;7.276;2023-11-21T08:13:36;99266.00;;;13.70
19948;BMP180;10135;50.702;7.276;2023-11-21T08:15:36;99266.00;;;13.70
19948;BMP180;10135;50.702;7.276;2023-11-21T08:17:38;99278.00;;;13.70
19948;BMP180;10135;50.702;7.276;2023-11-21T08:19:39;99275.00;;;13.70
19948;BMP180;10135;50.702;7.276;2023-11-21T08:21:39;99269.00;;;13.70
19948;BMP180;10135;50.702;7.276;2023-11-21T08:23:40;99268.00;;;13.70
19948;BMP180;10135;50.702;7.276;2023-11-21T08:25:45;99273.00;;;13.70
19948;BMP180;10135;50.702;7.276;2023-11-21T08:27:46;99275.00;;;13.70
19948;BMP180;10135;50.702;7.276;2023-11-21T08:29:47;99275.00;;;13.80
19948;BMP180;10135;50.702;7.276;2023-11-21T08:31:47;99279.00;;;13.80
19948;BMP180;10135;50.702;7.276;2023-11-21T08:33:48;99281.00;;;13.80
19948;BMP180;10135;50.702;7.276;2023-11-21T08:35:49;99286.00;;;13.80
19948;BMP180;10135;50.702;7.276;2023-11-21T08:37:52;99278.00;;;13.80
19948;BMP180;10135;50.702;7.276;2023-11-21T08:39:58;99290.00;;;13.80
19948;BMP180;10135;50.702;7.276;2023-11-21T08:42:00;99290.00;;;13.80
19948;BMP180;10135;50.702;7.276;2023-11-21T08:44:00;99287.00;;;13.80
19948;BMP180;10135;50.702;7.276;2023-11-21T08:46:01;99291.00;;;13.80
19948;BMP180;10135;50.702;7.276;2023-11-21T08:48:02;99290.00;;;13.80
19948;BMP180;10135;50.702;7.276;2023-11-21T08:50:03;99291.00;;;13.80
19948;BMP180;10135;50.702;7.276;2023-11-21T08:52:04;99290.00;;;13.90
19948;BMP180;10135;50.702;7.276;2023-11-21T08:54:05;99304.00;;;13.90
19948;BMP180;10135;50.702;7.276;2023-11-21T08:56:13;99306.00;;;13.90
19948;BMP180;10135;50.702;7.276;2023-11-21T08:58:14;99304.00;;;13.90
19948;BMP180;10135;50.702;7.276;2023-11-21T09:00:15;99305.00;;;13.90
19948;BMP180;10135;50.702;7.276;2023-11-21T09:02:17;99300.00;;;13.90
19948;BMP180;10135;50.702;7.276;2023-11-21T09:04:18;99308.00;;;13.90
19948;BMP180;10135;50.702;7.276;2023-11-21T09:06:18;99308.00;;;13.90
19948;BMP180;10135;50.702;7.276;2023-11-21T09:08:19;99317.00;;;14.00
19948;BMP180;10135;50.702;7.276;2023-11-21T09:10:20;99322.00;;;14.00
19948;BMP180;10135;50.702;7.276;2023-11-21T09:12:21;99323.00;;;14.00
19948;BMP180;10135;50.702;7.276;2023-11-21T09:14:22;99323.00;;;14.00
19948;BMP180;10135;50.702;7.276;2023-11-21T09:16:22;99328.00;;;14.00
19948;BMP180;10135;50.702;7.276;2023-11-21T09:18:23;99338.00;;;14.10
19948;BMP180;10135;50.702;7.276;2023-11-21T09:20:23;99333.00;;;14.00
19948;BMP180;10135;50.702;7.276;2023-11-21T09:22:24;99339.00;;;14.10
19948;BMP180;10135;50.702;7.276;2023-11-21T09:24:31;99338.00;;;14.10
19948;BMP180;10135;50.702;7.276;2023-11-21T09:26:32;99346.00;;;14.10
19948;BMP180;10135;50.702;7.276;2023-11-21T09:28:32;99350.00;;;14.10
19948;BMP180;10135;50.702;7.276;2023-11-21T09:30:36;99349.00;;;14.10
19948;BMP180;10135;50.702;7.276;2023-11-21T09:32:38;99359.00;;;14.10
19948;BMP180;10135;50.702;7.276;2023-11-21T09:34:39;99358.00;;;14.10
19948;BMP180;10135;50.702;7.276;2023-11-21T09:36:39;99364.00;;;14.10
19948;BMP180;10135;50.702;7.276;2023-11-21T09:38:41;99364.00;;;14.10
19948;BMP180;10135;50.702;7.276;2023-11-21T09:40:42;99367.00;;;14.10
19948;BMP180;10135;50.702;7.276;2023-11-21T09:42:56;99373.00;;;14.10
19948;BMP180;10135;50.702;7.276;2023-11-21T09:45:21;99374.00;;;14.10
19948;BMP180;10135;50.702;7.276;2023-11-21T09:47:24;99374.00;;;14.10
19948;BMP180;10135;50.702;7.276;2023-11-21T09:49:26;99371.00;;;14.10
19948;BMP180;10135;50.702;7.276;2023-11-21T09:51:31;99369.00;;;14.10
19948;BMP180;10135;50.702;7.276;2023-11-21T09:53:35;99378.00;;;14.20
19948;BMP180;10135;50.702;7.276;2023-11-21T09:55:36;99379.00;;;14.10
19948;BMP180;10135;50.702;7.276;2023-11-21T09:57:39;99374.00;;;14.20
19948;BMP180;10135;50.702;7.276;2023-11-21T09:59:40;99383.00;;;14.20
19948;BMP180;10135;50.702;7.276;2023-11-21T10:01:42;99371.00;;;14.20
19948;BMP180;10135;50.702;7.276;2023-11-21T10:03:43;99369.00;;;14.20
19948;BMP180;10135;50.702;7.276;2023-11-21T10:05:45;99374.00;;;14.20
19948;BMP180;10135;50.702;7.276;2023-11-21T10:07:51;99375.00;;;14.20
19948;BMP180;10135;50.702;7.276;2023-11-21T10:09:53;99378.00;;;14.20
19948;BMP180;10135;50.702;7.276;2023-11-21T10:11:56;99380.00;;;14.20
19948;BMP180;10135;50.702;7.276;2023-11-21T10:14:00;99383.00;;;14.20
19948;BMP180;10135;50.702;7.276;2023-11-21T10:16:03;99387.00;;;14.20
19948;BMP180;10135;50.702;7.276;2023-11-21T10:18:08;99381.00;;;14.20
19948;BMP180;10135;50.702;7.276;2023-11-21T10:20:11;99384.00;;;14.30
19948;BMP180;10135;50.702;7.276;2023-11-21T10:22:17;99386.00;;;14.30
19948;BMP180;10135;50.702;7.276;2023-11-21T10:24:17;99387.00;;;14.30
19948;BMP180;10135;50.702;7.276;2023-11-21T10:26:18;99388.00;;;14.30
19948;BMP180;10135;50.702;7.276;2023-11-21T10:28:21;99391.00;;;14.30
19948;BMP180;10135;50.702;7.276;2023-11-21T10:30:22;99387.00;;;14.30
19948;BMP180;10135;50.702;7.276;2023-11-21T10:32:28;99387.00;;;14.30
19948;BMP180;10135;50.702;7.276;2023-11-21T10:34:31;99390.00;;;14.40
19948;BMP180;10135;50.702;7.276;2023-11-21T10:36:33;99392.00;;;14.40
19948;BMP180;10135;50.702;7.276;2023-11-21T10:38:42;99394.00;;;14.30
19948;BMP180;10135;50.702;7.276;2023-11-21T10:40:44;99386.00;;;14.40
19948;BMP180;10135;50.702;7.276;2023-11-21T10:42:45;99398.00;;;14.40
19948;BMP180;10135;50.702;7.276;2023-11-21T10:44:46;99392.00;;;14.40
19948;BMP180;10135;50.702;7.276;2023-11-21T10:46:54;99393.00;;;14.40
19948;BMP180;10135;50.702;7.276;2023-11-21T10:48:57;99392.00;;;14.40
19948;BMP180;10135;50.702;7.276;2023-11-21T10:50:58;99395.00;;;14.50
19948;BMP180;10135;50.702;7.276;2023-11-21T10:53:04;99395.00;;;14.50
19948;BMP180;10135;50.702;7.276;2023-11-21T10:55:20;99399.00;;;14.40
19948;BMP180;10135;50.702;7.276;2023-11-21T10:57:26;99399.00;;;14.50
19948;BMP180;10135;50.702;7.276;2023-11-21T10:59:31;99399.00;;;14.50
19948;BMP180;10135;50.702;7.276;2023-11-21T11:01:32;99398.00;;;14.50
19948;BMP180;10135;50.702;7.276;2023-11-21T11:03:33;99395.00;;;14.50
19948;BMP180;10135;50.702;7.276;2023-11-21T11:05:36;99404.00;;;14.50
19948;BMP180;10135;50.702;7.276;2023-11-21T11:08:12;99404.00;;;14.50
19948;BMP180;10135;50.702;7.276;2023-11-21T11:10:40;99401.00;;;14.50
19948;BMP180;10135;50.702;7.276;2023-11-21T11:13:06;99402.00;;;14.60
19948;BMP180;10135;50.702;7.276;2023-11-21T11:15:51;99406.00;;;14.60
19948;BMP180;10135;50.702;7.276;2023-11-21T11:18:28;99403.00;;;14.60
19948;BMP180;10135;50.702;7.276;2023-11-21T11:27:44;99400.00;;;14.70
19948;BMP180;10135;50.702;7.276;2023-11-21T11:30:46;99399.00;;;14.70
19948;BMP180;10135;50.702;7.276;2023-11-21T11:46:05;99417.00;;;14.80
19948;BMP180;10135;50.702;7.276;2023-11-21T11:59:01;99422.00;;;14.80
19948;BMP180;10135;50.702;7.276;2023-11-21T12:09:05;99428.00;;;14.80
19948;BMP180;10135;50.702;7.276;2023-11-21T12:11:06;99421.00;;;14.80
19948;BMP180;10135;50.702;7.276;2023-11-21T12:13:09;99418.00;;;14.70
19948;BMP180;10135;50.702;7.276;2023-11-21T12:15:11;99422.00;;;14.80
19948;BMP180;10135;50.702;7.276;2023-11-21T12:17:12;99428.00;;;14.80
19948;BMP180;10135;50.702;7.276;2023-11-21T12:19:13;99435.00;;;14.80
19948;BMP180;10135;50.702;7.276;2023-11-21T12:21:14;99429.00;;;14.80
19948;BMP180;10135;50.702;7.276;2023-11-21T12:23:16;99430.00;;;14.80
19948;BMP180;10135;50.702;7.276;2023-11-21T12:25:20;99430.00;;;14.80
19948;BMP180;10135;50.702;7.276;2023-11-21T12:27:21;99432.00;;;14.80
19948;BMP180;10135;50.702;7.276;2023-11-21T12:29:22;99439.00;;;14.80
19948;BMP180;10135;50.702;7.276;2023-11-21T12:31:23;99437.00;;;14.80
19948;BMP180;10135;50.702;7.276;2023-11-21T12:33:24;99440.00;;;14.80
19948;BMP180;10135;50.702;7.276;2023-11-21T12:35:32;99444.00;;;14.80
19948;BMP180;10135;50.702;7.276;2023-11-21T12:37:37;99446.00;;;14.80
19948;BMP180;10135;50.702;7.276;2023-11-21T12:39:39;99448.00;;;14.80
19948;BMP180;10135;50.702;7.276;2023-11-21T12:41:39;99450.00;;;14.80
19948;BMP180;10135;50.702;7.276;2023-11-21T12:43:41;99454.00;;;14.80
19948;BMP180;10135;50.702;7.276;2023-11-21T12:45:41;99449.00;;;14.80
19948;BMP180;10135;50.702;7.276;2023-11-21T12:47:44;99452.00;;;14.80
19948;BMP180;10135;50.702;7.276;2023-11-21T12:49:45;99453.00;;;14.70
19948;BMP180;10135;50.702;7.276;2023-11-21T12:51:46;99453.00;;;14.80
19948;BMP180;10135;50.702;7.276;2023-11-21T12:53:47;99461.00;;;14.80
19948;BMP180;10135;50.702;7.276;2023-11-21T12:55:48;99460.00;;;14.80
19948;BMP180;10135;50.702;7.276;2023-11-21T12:57:54;99456.00;;;14.80
19948;BMP180;10135;50.702;7.276;2023-11-21T12:59:58;99455.00;;;14.80
19948;BMP180;10135;50.702;7.276;2023-11-21T13:01:58;99457.00;;;14.80
19948;BMP180;10135;50.702;7.276;2023-11-21T13:04:07;99456.00;;;14.90
19948;BMP180;10135;50.702;7.276;2023-11-21T13:06:11;99456.00;;;14.90
19948;BMP180;10135;50.702;7.276;2023-11-21T13:08:13;99449.00;;;14.90
19948;BMP180;10135;50.702;7.276;2023-11-21T13:10:14;99450.00;;;14.90
19948;BMP180;10135;50.702;7.276;2023-11-21T13:12:15;99446.00;;;14.90
19948;BMP180;10135;50.702;7.276;2023-11-21T13:14:18;99450.00;;;14.90
19948;BMP180;10135;50.702;7.276;2023-11-21T13:16:19;99445.00;;;14.90
19948;BMP180;10135;50.702;7.276;2023-11-21T13:18:21;99457.00;;;14.90
19948;BMP180;10135;50.702;7.276;2023-11-21T13:20:22;99463.00;;;14.90
19948;BMP180;10135;50.702;7.276;2023-11-21T13:22:22;99462.00;;;14.90
19948;BMP180;10135;50.702;7.276;2023-11-21T13:24:25;99467.00;;;14.90
19948;BMP180;10135;50.702;7.276;2023-11-21T13:26:26;99459.00;;;14.90
19948;BMP180;10135;50.702;7.276;2023-11-21T13:28:27;99466.00;;;14.90
19948;BMP180;10135;50.702;7.276;2023-11-21T13:30:32;99468.00;;;14.90
19948;BMP180;10135;50.702;7.276;2023-11-21T13:32:35;99467.00;;;14.90
19948;BMP180;10135;50.702;7.276;2023-11-21T13:34:36;99468.00;;;14.90
19948;BMP180;10135;50.702;7.276;2023-11-21T13:36:37;99473.00;;;14.90
19948;BMP180;10135;50.702;7.276;2023-11-21T13:38:38;99479.00;;;14.90
19948;BMP180;10135;50.702;7.276;2023-11-21T13:40:48;99481.00;;;14.90
19948;BMP180;10135;50.702;7.276;2023-11-21T13:42:50;99483.00;;;14.90
19948;BMP180;10135;50.702;7.276;2023-11-21T13:44:57;99491.00;;;14.90
19948;BMP180;10135;50.702;7.276;2023-11-21T13:46:58;99494.00;;;14.90
19948;BMP180;10135;50.702;7.276;2023-11-21T13:48:59;99498.00;;;14.90
19948;BMP180;10135;50.702;7.276;2023-11-21T13:51:01;99507.00;;;14.80
19948;BMP180;10135;50.702;7.276;2023-11-21T13:53:11;99509.00;;;14.80
19948;BMP180;10135;50.702;7.276;2023-11-21T13:55:19;99510.00;;;14.80
19948;BMP180;10135;50.702;7.276;2023-11-21T13:57:20;99519.00;;;14.80
19948;BMP180;10135;50.702;7.276;2023-11-21T13:59:21;99512.00;;;14.80
19948;BMP180;10135;50.702;7.276;2023-11-21T14:01:27;99521.00;;;14.70
19948;BMP180;10135;50.702;7.276;2023-11-21T14:03:30;99517.00;;;14.70
19948;BMP180;10135;50.702;7.276;2023-11-21T14:05:44;99514.00;;;14.70
19948;BMP180;10135;50.702;7.276;2023-11-21T14:07:46;99520.00;;;14.70
19948;BMP180;10135;50.702;7.276;2023-11-21T14:09:48;99520.00;;;14.70
19948;BMP180;10135;50.702;7.276;2023-11-21T14:11:55;99524.00;;;14.70
19948;BMP180;10135;50.702;7.276;2023-11-21T14:13:57;99523.00;;;14.60
19948;BMP180;10135;50.702;7.276;2023-11-21T14:16:00;99522.00;;;14.70
19948;BMP180;10135;50.702;7.276;2023-11-21T14:18:02;99523.00;;;14.60
19948;BMP180;10135;50.702;7.276;2023-11-21T14:20:08;99530.00;;;14.60
19948;BMP180;10135;50.702;7.276;2023-11-21T14:22:16;99531.00;;;14.60
19948;BMP180;10135;50.702;7.276;2023-11-21T14:24:19;99529.00;;;14.60
19948;BMP180;10135;50.702;7.276;2023-11-21T14:26:25;99535.00;;;14.60
19948;BMP180;10135;50.702;7.276;2023-11-21T14:28:58;99529.00;;;14.60
19948;BMP180;10135;50.702;7.276;2023-11-21T14:34:48;99534.00;;;14.60
19948;BMP180;10135;50.702;7.276;2023-11-21T14:37:01;99535.00;;;14.60
19948;BMP180;10135;50.702;7.276;2023-11-21T14:39:40;99538.00;;;14.50
19948;BMP180;10135;50.702;7.276;2023-11-21T14:42:45;99542.00;;;14.50
19948;BMP180;10135;50.702;7.276;2023-11-21T14:45:26;99539.00;;;14.50
19948;BMP180;10135;50.702;7.276;2023-11-21T14:51:08;99548.00;;;14.40
19948;BMP180;10135;50.702;7.276;2023-11-21T14:54:08;99546.00;;;14.40
19948;BMP180;10135;50.702;7.276;2023-11-21T14:57:48;99549.00;;;14.40
19948;BMP180;10135;50.702;7.276;2023-11-21T15:03:18;99555.00;;;14.40
19948;BMP180;10135;50.702;7.276;2023-11-21T15:05:51;99571.00;;;14.40
19948;BMP180;10135;50.702;7.276;2023-11-21T15:07:55;99566.00;;;14.40
19948;BMP180;10135;50.702;7.276;2023-11-21T15:09:57;99568.00;;;14.30
19948;BMP180;10135;50.702;7.276;2023-11-21T15:11:59;99576.00;;;14.40
19948;BMP180;10135;50.702;7.276;2023-11-21T15:14:20;99573.00;;;14.40
19948;BMP180;10135;50.702;7.276;2023-11-21T15:16:25;99572.00;;;14.40
19948;BMP180;10135;50.702;7.276;2023-11-21T15:18:28;99571.00;;;14.30
19948;BMP180;10135;50.702;7.276;2023-11-21T15:20:29;99582.00;;;14.40
19948;BMP180;10135;50.702;7.276;2023-11-21T15:22:31;99585.00;;;14.30
19948;BMP180;10135;50.702;7.276;2023-11-21T15:24:31;99587.00;;;14.30
19948;BMP180;10135;50.702;7.276;2023-11-21T15:26:32;99587.00;;;14.30
19948;BMP180;10135;50.702;7.276;2023-11-21T15:28:33;99581.00;;;14.30
19948;BMP180;10135;50.702;7.276;2023-11-21T15:30:33;99579.00;;;14.30
19948;BMP180;10135;50.702;7.276;2023-11-21T15:32:37;99584.00;;;14.30
19948;BMP180;10135;50.702;7.276;2023-11-21T15:35:09;99598.00;;;14.30
19948;BMP180;10135;50.702;7.276;2023-11-21T15:37:14;99592.00;;;14.30
19948;BMP180;10135;50.702;7.276;2023-11-21T15:39:57;99597.00;;;14.30
19948;BMP180;10135;50.702;7.276;2023-11-21T15:42:09;99602.00;;;14.30
19948;BMP180;10135;50.702;7.276;2023-11-21T15:44:21;99595.00;;;14.30
19948;BMP180;10135;50.702;7.276;2023-11-21T15:46:41;99603.00;;;14.30
19948;BMP180;10135;50.702;7.276;2023-11-21T15:48:42;99606.00;;;14.30
19948;BMP180;10135;50.702;7.276;2023-11-21T15:50:50;99605.00;;;14.30
19948;BMP180;10135;50.702;7.276;2023-11-21T15:52:52;99613.00;;;14.20
19948;BMP180;10135;50.702;7.276;2023-11-21T15:54:59;99612.00;;;14.20
19948;BMP180;10135;50.702;7.276;2023-11-21T15:57:14;99616.00;;;14.20
19948;BMP180;10135;50.702;7.276;2023-11-21T15:59:20;99607.00;;;14.20
19948;BMP180;10135;50.702;7.276;2023-11-21T16:01:31;99613.00;;;14.20
19948;BMP180;10135;50.702;7.276;2023-11-21T16:03:42;99619.00;;;14.20
19948;BMP180;10135;50.702;7.276;2023-11-21T16:05:46;99627.00;;;14.20
19948;BMP180;10135;50.702;7.276;2023-11-21T16:07:51;99624.00;;;14.20
19948;BMP180;10135;50.702;7.276;2023-11-21T16:10:15;99635.00;;;14.20
19948;BMP180;10135;50.702;7.276;2023-11-21T16:12:16;99643.00;;;14.20
19948;BMP180;10135;50.702;7.276;2023-11-21T16:14:19;99640.00;;;14.20
19948;BMP180;10135;50.702;7.276;2023-11-21T16:16:21;99638.00;;;14.20
19948;BMP180;10135;50.702;7.276;2023-11-21T16:18:22;99637.00;;;14.30
19948;BMP180;10135;50.702;7.276;2023-11-21T16:20:26;99636.00;;;14.20
19948;BMP180;10135;50.702;7.276;2023-11-21T16:22:27;99639.00;;;14.20
19948;BMP180;10135;50.702;7.276;2023-11-21T16:24:28;99647.00;;;14.30
19948;BMP180;10135;50.702;7.276;2023-11-21T16:26:30;99646.00;;;14.30
19948;BMP180;10135;50.702;7.276;2023-11-21T16:28:37;99651.00;;;14.20
19948;BMP180;10135;50.702;7.276;2023-11-21T16:30:42;99652.00;;;14.20
19948;BMP180;10135;50.702;7.276;2023-11-21T16:46:54;99674.00;;;14.20
19948;BMP180;10135;50.702;7.276;2023-11-21T16:48:57;99674.00;;;14.20
19948;BMP180;10135;50.702;7.276;2023-11-21T16:50:58;99674.00;;;14.20
19948;BMP180;10135;50.702;7.276;2023-11-21T16:53:03;99682.00;;;14.10
19948;BMP180;10135;50.702;7.276;2023-11-21T16:55:06;99678.00;;;14.20
19948;BMP180;10135;50.702;7.276;2023-11-21T16:57:09;99688.00;;;14.20
19948;BMP180;10135;50.702;7.276;2023-11-21T16:59:11;99695.00;;;14.20
19948;BMP180;10135;50.702;7.276;2023-11-21T17:01:14;99688.00;;;14.20
19948;BMP180;10135;50.702;7.276;2023-11-21T17:03:24;99694.00;;;14.20
19948;BMP180;10135;50.702;7.276;2023-11-21T17:05:26;99700.00;;;14.20
19948;BMP180;10135;50.702;7.276;2023-11-21T17:07:27;99702.00;;;14.20
19948;BMP180;10135;50.702;7.276;2023-11-21T17:09:29;99704.00;;;14.20
19948;BMP180;10135;50.702;7.276;2023-11-21T17:11:30;99713.00;;;14.20
19948;BMP180;10135;50.702;7.276;2023-11-21T17:13:30;99714.00;;;14.20
19948;BMP180;10135;50.702;7.276;2023-11-21T17:15:31;99714.00;;;14.20
19948;BMP180;10135;50.702;7.276;2023-11-21T17:17:32;99716.00;;;14.20
19948;BMP180;10135;50.702;7.276;2023-11-21T17:19:34;99718.00;;;14.20
19948;BMP180;10135;50.702;7.276;2023-11-21T17:21:35;99727.00;;;14.20
19948;BMP180;10135;50.702;7.276;2023-11-21T17:23:36;99731.00;;;14.20
19948;BMP180;10135;50.702;7.276;2023-11-21T17:25:37;99732.00;;;14.20
19948;BMP180;10135;50.702;7.276;2023-11-21T17:27:37;99736.00;;;14.20
19948;BMP180;10135;50.702;7.276;2023-11-21T17:29:38;99735.00;;;14.20
19948;BMP180;10135;50.702;7.276;2023-11-21T17:31:39;99738.00;;;14.20
19948;BMP180;10135;50.702;7.276;2023-11-21T17:33:39;99730.00;;;14.20
19948;BMP180;10135;50.702;7.276;2023-11-21T17:35:42;99726.00;;;14.20
19948;BMP180;10135;50.702;7.276;2023-11-21T17:37:43;99733.00;;;14.20
19948;BMP180;10135;50.702;7.276;2023-11-21T17:39:43;99730.00;;;14.20
19948;BMP180;10135;50.702;7.276;2023-11-21T17:41:44;99736.00;;;14.20
19948;BMP180;10135;50.702;7.276;2023-11-21T17:43:45;99742.00;;;14.20
19948;BMP180;10135;50.702;7.276;2023-11-21T17:45:45;99749.00;;;14.20
19948;BMP180;10135;50.702;7.276;2023-11-21T17:47:49;99749.00;;;14.20
19948;BMP180;10135;50.702;7.276;2023-11-21T17:49:50;99757.00;;;14.20
19948;BMP180;10135;50.702;7.276;2023-11-21T17:51:50;99773.00;;;14.20
19948;BMP180;10135;50.702;7.276;2023-11-21T17:53:51;99773.00;;;14.10
19948;BMP180;10135;50.702;7.276;2023-11-21T17:55:58;99775.00;;;14.10
19948;BMP180;10135;50.702;7.276;2023-11-21T17:57:59;99782.00;;;14.10
19948;BMP180;10135;50.702;7.276;2023-11-21T17:59:59;99786.00;;;14.10
19948;BMP180;10135;50.702;7.276;2023-11-21T18:02:00;99783.00;;;14.10
19948;BMP180;10135;50.702;7.276;2023-11-21T18:04:01;99782.00;;;14.10
19948;BMP180;10135;50.702;7.276;2023-11-21T18:06:02;99796.00;;;14.00
19948;BMP180;10135;50.702;7.276;2023-11-21T18:08:04;99791.00;;;14.00
19948;BMP180;10135;50.702;7.276;2023-11-21T18:10:07;99797.00;;;14.00
19948;BMP180;10135;50.702;7.276;2023-11-21T18:12:08;99796.00;;;14.00
19948;BMP180;10135;50.702;7.276;2023-11-21T18:14:09;99797.00;;;13.90
19948;BMP180;10135;50.702;7.276;2023-11-21T18:16:10;99810.00;;;13.90
19948;BMP180;10135;50.702;7.276;2023-11-21T18:18:11;99813.00;;;13.90
19948;BMP180;10135;50.702;7.276;2023-11-21T18:20:12;99822.00;;;13.90
19948;BMP180;10135;50.702;7.276;2023-11-21T18:22:12;99825.00;;;13.90
19948;BMP180;10135;50.702;7.276;2023-11-21T18:24:13;99831.00;;;13.90
19948;BMP180;10135;50.702;7.276;2023-11-21T18:26:17;99833.00;;;13.80
19948;BMP180;10135;50.702;7.276;2023-11-21T18:28:18;99842.00;;;13.80
19948;BMP180;10135;50.702;7.276;2023-11-21T18:30:19;99845.00;;;13.80
19948;BMP180;10135;50.702;7.276;2023-11-21T18:32:19;99843.00;;;13.80
19948;BMP180;10135;50.702;7.276;2023-11-21T18:34:23;99855.00;;;13.80
19948;BMP180;10135;50.702;7.276;2023-11-21T18:36:25;99856.00;;;13.70
19948;BMP180;10135;50.702;7.276;2023-11-21T18:38:25;99858.00;;;13.70
19948;BMP180;10135;50.702;7.276;2023-11-21T18:40:26;99867.00;;;13.70
19948;BMP180;10135;50.702;7.276;2023-11-21T18:42:27;99860.00;;;13.70
19948;BMP180;10135;50.702;7.276;2023-11-21T18:44:29;99868.00;;;13.70
19948;BMP180;10135;50.702;7.276;2023-11-21T18:46:36;99871.00;;;13.60
19948;BMP180;10135;50.702;7.276;2023-11-21T18:48:37;99876.00;;;13.60
19948;BMP180;10135;50.702;7.276;2023-11-21T18:50:37;99876.00;;;13.60
19948;BMP180;10135;50.702;7.276;2023-11-21T18:52:38;99886.00;;;13.60
19948;BMP180;10135;50.702;7.276;2023-11-21T18:54:42;99890.00;;;13.60
19948;BMP180;10135;50.702;7.276;2023-11-21T18:56:43;99898.00;;;13.50
19948;BMP180;10135;50.702;7.276;2023-11-21T18:58:44;99894.00;;;13.50
19948;BMP180;10135;50.702;7.276;2023-11-21T19:00:44;99903.00;;;13.50
19948;BMP180;10135;50.702;7.276;2023-11-21T19:02:45;99910.00;;;13.40